sensor_id;sensor_type;location;lat;lon;timestamp;pressure;altitude;pressure_sealevel;temperature;humidity
9784;BME280;4931;44.874;-1.092;2023-08-06T00:00:13;101847.59;;;16.83;100.00
9784;BME280;4931;44.874;-1.092;2023-08-06T00:02:39;101832.16;;;17.01;100.00
9784;BME280;4931;44.874;-1.092;2023-08-06T00:05:05;101839.34;;;16.77;100.00
9784;BME280;4931;44.874;-1.092;2023-08-06T00:07:30;101847.59;;;16.83;100.00
9784;BME280;4931;44.874;-1.092;2023-08-06T00:09:56;101846.59;;;16.98;100.00
9784;BME280;4931;44.874;-1.092;2023-08-06T00:12:21;101850.31;;;16.88;100.00
9784;BME280;4931;44.874;-1.092;2023-08-06T00:14:50;101839.09;;;16.74;100.00
9784;BME280;4931;44.874;-1.092;2023-08-06T00:17:16;101857.56;;;16.84;100.00
9784;BME280;4931;44.874;-1.092;2023-08-06T00:19:42;101840.88;;;16.89;100.00
9784;BME280;4931;44.874;-1.092;2023-08-06T00:22:07;101852.59;;;16.81;100.00
9784;BME280;4931;44.874;-1.092;2023-08-06T00:24:34;101849.25;;;16.84;100.00
9784;BME280;4931;44.874;-1.092;2023-08-06T00:26:59;101839.94;;;16.74;100.00
9784;BME280;4931;44.874;-1.092;2023-08-06T00:29:25;101844.28;;;16.81;100.00
9784;BME280;4931;44.874;-1.092;2023-08-06T00:31:50;101840.66;;;16.85;100.00
9784;BME280;4931;44.874;-1.092;2023-08-06T00:34:16;101825.09;;;16.65;100.00
9784;BME280;4931;44.874;-1.092;2023-08-06T00:36:41;101831.59;;;16.80;100.00
9784;BME280;4931;44.874;-1.092;2023-08-06T00:39:07;101828.72;;;16.85;100.00
9784;BME280;4931;44.874;-1.092;2023-08-06T00:41:32;101836.94;;;16.95;100.00
9784;BME280;4931;44.874;-1.092;2023-08-06T00:43:58;101839.00;;;16.84;100.00
9784;BME280;4931;44.874;-1.092;2023-08-06T00:46:23;101837.13;;;16.80;100.00
9784;BME280;4931;44.874;-1.092;2023-08-06T00:48:50;101839.41;;;16.72;100.00
9784;BME280;4931;44.874;-1.092;2023-08-06T00:51:16;101836.50;;;16.58;100.00
9784;BME280;4931;44.874;-1.092;2023-08-06T00:53:42;101837.91;;;16.56;100.00
9784;BME280;4931;44.874;-1.092;2023-08-06T00:56:09;101840.78;;;16.51;100.00
9784;BME280;4931;44.874;-1.092;2023-08-06T00:58:35;101842.41;;;16.52;100.00
9784;BME280;4931;44.874;-1.092;2023-08-06T01:01:02;101842.47;;;16.47;100.00
9784;BME280;4931;44.874;-1.092;2023-08-06T01:03:27;101844.16;;;16.42;100.00
9784;BME280;4931;44.874;-1.092;2023-08-06T01:05:53;101826.50;;;16.38;100.00
9784;BME280;4931;44.874;-1.092;2023-08-06T01:14:36;101853.03;;;16.45;100.00
9784;BME280;4931;44.874;-1.092;2023-08-06T01:17:04;101855.78;;;16.45;100.00
9784;BME280;4931;44.874;-1.092;2023-08-06T01:19:30;101852.53;;;16.37;100.00
9784;BME280;4931;44.874;-1.092;2023-08-06T01:21:55;101848.53;;;16.24;100.00
9784;BME280;4931;44.874;-1.092;2023-08-06T01:24:21;101844.97;;;16.19;100.00
9784;BME280;4931;44.874;-1.092;2023-08-06T01:26:57;101840.53;;;16.18;100.00
9784;BME280;4931;44.874;-1.092;2023-08-06T01:29:42;101846.63;;;16.20;100.00
9784;BME280;4931;44.874;-1.092;2023-08-06T01:32:11;101856.69;;;16.10;100.00
9784;BME280;4931;44.874;-1.092;2023-08-06T01:34:39;101851.72;;;16.07;100.00
9784;BME280;4931;44.874;-1.092;2023-08-06T01:37:05;101858.38;;;16.06;100.00
9784;BME280;4931;44.874;-1.092;2023-08-06T01:39:35;101856.41;;;16.07;100.00
9784;BME280;4931;44.874;-1.092;2023-08-06T01:42:00;101861.16;;;16.06;100.00
9784;BME280;4931;44.874;-1.092;2023-08-06T01:44:26;101853.59;;;16.12;100.00
9784;BME280;4931;44.874;-1.092;2023-08-06T01:46:51;101861.06;;;16.17;100.00
9784;BME280;4931;44.874;-1.092;2023-08-06T01:49:17;101846.75;;;16.04;100.00
9784;BME280;4931;44.874;-1.092;2023-08-06T01:51:42;101848.84;;;16.18;100.00
9784;BME280;4931;44.874;-1.092;2023-08-06T01:54:08;101842.84;;;16.10;100.00
9784;BME280;4931;44.874;-1.092;2023-08-06T01:56:33;101859.09;;;16.17;100.00
9784;BME280;4931;44.874;-1.092;2023-08-06T01:58:59;101860.75;;;16.18;100.00
9784;BME280;4931;44.874;-1.092;2023-08-06T02:01:24;101866.00;;;16.20;100.00
9784;BME280;4931;44.874;-1.092;2023-08-06T02:03:50;101865.78;;;16.11;100.00
9784;BME280;4931;44.874;-1.092;2023-08-06T02:06:15;101861.09;;;16.12;100.00
9784;BME280;4931;44.874;-1.092;2023-08-06T02:08:41;101861.19;;;16.01;100.00
9784;BME280;4931;44.874;-1.092;2023-08-06T02:11:07;101860.25;;;16.11;100.00
9784;BME280;4931;44.874;-1.092;2023-08-06T02:13:32;101848.97;;;16.07;100.00
9784;BME280;4931;44.874;-1.092;2023-08-06T02:15:58;101877.13;;;16.15;100.00
9784;BME280;4931;44.874;-1.092;2023-08-06T02:18:23;101883.16;;;16.22;100.00
9784;BME280;4931;44.874;-1.092;2023-08-06T02:20:56;101881.44;;;16.26;100.00
9784;BME280;4931;44.874;-1.092;2023-08-06T02:23:24;101875.38;;;16.24;100.00
9784;BME280;4931;44.874;-1.092;2023-08-06T02:25:57;101877.38;;;16.18;100.00
9784;BME280;4931;44.874;-1.092;2023-08-06T02:28:23;101880.09;;;16.23;100.00
9784;BME280;4931;44.874;-1.092;2023-08-06T02:30:52;101877.13;;;16.15;100.00
9784;BME280;4931;44.874;-1.092;2023-08-06T02:33:18;101888.72;;;16.17;100.00
9784;BME280;4931;44.874;-1.092;2023-08-06T02:35:43;101891.97;;;16.24;100.00
9784;BME280;4931;44.874;-1.092;2023-08-06T02:38:08;101886.41;;;16.29;100.00
9784;BME280;4931;44.874;-1.092;2023-08-06T02:40:34;101885.00;;;16.32;100.00
9784;BME280;4931;44.874;-1.092;2023-08-06T02:42:59;101891.63;;;16.31;100.00
9784;BME280;4931;44.874;-1.092;2023-08-06T02:45:25;101891.38;;;16.27;100.00
9784;BME280;4931;44.874;-1.092;2023-08-06T02:47:50;101904.03;;;16.38;100.00
9784;BME280;4931;44.874;-1.092;2023-08-06T02:50:16;101902.63;;;16.41;100.00
9784;BME280;4931;44.874;-1.092;2023-08-06T02:52:41;101891.03;;;16.63;100.00
9784;BME280;4931;44.874;-1.092;2023-08-06T02:55:07;101882.41;;;16.40;100.00
9784;BME280;4931;44.874;-1.092;2023-08-06T02:57:33;101891.53;;;16.41;100.00
9784;BME280;4931;44.874;-1.092;2023-08-06T02:59:58;101881.88;;;16.38;100.00
9784;BME280;4931;44.874;-1.092;2023-08-06T03:02:24;101875.63;;;16.27;100.00
9784;BME280;4931;44.874;-1.092;2023-08-06T03:04:49;101879.44;;;16.32;100.00
9784;BME280;4931;44.874;-1.092;2023-08-06T03:07:15;101871.41;;;16.35;100.00
9784;BME280;4931;44.874;-1.092;2023-08-06T03:09:40;101873.97;;;16.26;100.00
9784;BME280;4931;44.874;-1.092;2023-08-06T03:12:06;101871.50;;;16.25;100.00
9784;BME280;4931;44.874;-1.092;2023-08-06T03:14:31;101881.09;;;16.33;100.00
9784;BME280;4931;44.874;-1.092;2023-08-06T03:16:57;101869.72;;;16.34;100.00
9784;BME280;4931;44.874;-1.092;2023-08-06T03:19:22;101878.50;;;16.41;100.00
9784;BME280;4931;44.874;-1.092;2023-08-06T03:21:48;101860.06;;;16.32;100.00
9784;BME280;4931;44.874;-1.092;2023-08-06T03:24:14;101873.72;;;16.23;100.00
9784;BME280;4931;44.874;-1.092;2023-08-06T03:26:39;101881.16;;;16.27;100.00
9784;BME280;4931;44.874;-1.092;2023-08-06T03:29:05;101866.53;;;16.22;100.00
9784;BME280;4931;44.874;-1.092;2023-08-06T03:31:30;101875.28;;;16.34;100.00
9784;BME280;4931;44.874;-1.092;2023-08-06T03:33:56;101878.59;;;16.36;100.00
9784;BME280;4931;44.874;-1.092;2023-08-06T03:36:21;101862.53;;;16.33;100.00
9784;BME280;4931;44.874;-1.092;2023-08-06T03:38:47;101872.47;;;16.39;100.00
9784;BME280;4931;44.874;-1.092;2023-08-06T03:41:12;101871.97;;;16.32;100.00
9784;BME280;4931;44.874;-1.092;2023-08-06T03:43:38;101874.72;;;16.32;100.00
9784;BME280;4931;44.874;-1.092;2023-08-06T03:46:03;101872.22;;;16.36;100.00
9784;BME280;4931;44.874;-1.092;2023-08-06T03:48:28;101864.78;;;16.31;100.00
9784;BME280;4931;44.874;-1.092;2023-08-06T03:50:54;101871.03;;;16.42;100.00
9784;BME280;4931;44.874;-1.092;2023-08-06T03:53:19;101879.88;;;16.44;100.00
9784;BME280;4931;44.874;-1.092;2023-08-06T03:55:45;101876.97;;;16.30;100.00
9784;BME280;4931;44.874;-1.092;2023-08-06T03:58:10;101870.81;;;16.38;100.00
9784;BME280;4931;44.874;-1.092;2023-08-06T04:00:36;101868.69;;;16.30;100.00
9784;BME280;4931;44.874;-1.092;2023-08-06T04:03:01;101881.41;;;16.31;100.00
9784;BME280;4931;44.874;-1.092;2023-08-06T04:05:27;101876.69;;;16.32;100.00
9784;BME280;4931;44.874;-1.092;2023-08-06T04:07:53;101876.59;;;16.42;100.00
9784;BME280;4931;44.874;-1.092;2023-08-06T04:10:18;101877.50;;;16.32;100.00
9784;BME280;4931;44.874;-1.092;2023-08-06T04:12:44;101880.91;;;16.24;100.00
9784;BME280;4931;44.874;-1.092;2023-08-06T04:15:09;101885.38;;;16.20;100.00
9784;BME280;4931;44.874;-1.092;2023-08-06T04:17:35;101882.19;;;16.07;100.00
9784;BME280;4931;44.874;-1.092;2023-08-06T04:20:00;101877.25;;;15.99;100.00
9784;BME280;4931;44.874;-1.092;2023-08-06T04:22:27;101891.03;;;16.04;100.00
9784;BME280;4931;44.874;-1.092;2023-08-06T04:24:52;101889.38;;;16.03;100.00
9784;BME280;4931;44.874;-1.092;2023-08-06T04:27:19;101872.81;;;15.98;100.00
9784;BME280;4931;44.874;-1.092;2023-08-06T04:29:44;101902.94;;;16.05;100.00
9784;BME280;4931;44.874;-1.092;2023-08-06T04:32:10;101891.06;;;15.99;100.00
9784;BME280;4931;44.874;-1.092;2023-08-06T04:34:36;101908.16;;;16.12;100.00
9784;BME280;4931;44.874;-1.092;2023-08-06T04:37:03;101897.69;;;16.03;100.00
9784;BME280;4931;44.874;-1.092;2023-08-06T04:39:29;101910.91;;;16.12;100.00
9784;BME280;4931;44.874;-1.092;2023-08-06T04:41:58;101896.06;;;16.02;100.00
9784;BME280;4931;44.874;-1.092;2023-08-06T04:44:23;101905.47;;;16.01;100.00
9784;BME280;4931;44.874;-1.092;2023-08-06T04:46:49;101905.47;;;16.01;100.00
9784;BME280;4931;44.874;-1.092;2023-08-06T04:49:15;101909.66;;;15.93;100.00
9784;BME280;4931;44.874;-1.092;2023-08-06T04:51:40;101911.66;;;15.88;100.00
9784;BME280;4931;44.874;-1.092;2023-08-06T04:54:05;101927.13;;;15.89;100.00
9784;BME280;4931;44.874;-1.092;2023-08-06T04:56:31;101905.88;;;15.79;100.00
9784;BME280;4931;44.874;-1.092;2023-08-06T04:58:58;101928.81;;;15.85;100.00
9784;BME280;4931;44.874;-1.092;2023-08-06T05:01:24;101927.19;;;15.79;100.00
9784;BME280;4931;44.874;-1.092;2023-08-06T05:03:50;101932.72;;;15.79;100.00
9784;BME280;4931;44.874;-1.092;2023-08-06T05:06:15;101919.47;;;15.70;100.00
9784;BME280;4931;44.874;-1.092;2023-08-06T05:08:40;101933.53;;;15.79;100.00
9784;BME280;4931;44.874;-1.092;2023-08-06T05:11:06;101941.56;;;15.75;100.00
9784;BME280;4931;44.874;-1.092;2023-08-06T05:13:31;101933.56;;;15.74;100.00
9784;BME280;4931;44.874;-1.092;2023-08-06T05:15:58;101938.59;;;15.67;100.00
9784;BME280;4931;44.874;-1.092;2023-08-06T05:18:23;101933.63;;;15.64;100.00
9784;BME280;4931;44.874;-1.092;2023-08-06T05:20:49;101950.97;;;15.74;100.00
9784;BME280;4931;44.874;-1.092;2023-08-06T05:23:15;101944.38;;;15.70;100.00
9784;BME280;4931;44.874;-1.092;2023-08-06T05:25:40;101951.53;;;15.82;100.00
9784;BME280;4931;44.874;-1.092;2023-08-06T05:28:06;101957.09;;;15.71;100.00
9784;BME280;4931;44.874;-1.092;2023-08-06T05:30:32;101958.75;;;15.72;100.00
9784;BME280;4931;44.874;-1.092;2023-08-06T05:32:57;101952.69;;;15.65;100.00
9784;BME280;4931;44.874;-1.092;2023-08-06T05:35:23;101959.84;;;15.76;100.00
9784;BME280;4931;44.874;-1.092;2023-08-06T05:37:52;101962.31;;;15.78;100.00
9784;BME280;4931;44.874;-1.092;2023-08-06T05:40:18;101954.56;;;15.80;100.00
9784;BME280;4931;44.874;-1.092;2023-08-06T05:42:43;101967.00;;;15.88;100.00
9784;BME280;4931;44.874;-1.092;2023-08-06T05:45:09;101965.84;;;15.89;100.00
9784;BME280;4931;44.874;-1.092;2023-08-06T05:47:35;101972.53;;;15.88;100.00
9784;BME280;4931;44.874;-1.092;2023-08-06T05:50:01;101967.53;;;15.85;100.00
9784;BME280;4931;44.874;-1.092;2023-08-06T05:52:26;101986.88;;;15.90;100.00
9784;BME280;4931;44.874;-1.092;2023-08-06T05:54:52;101997.09;;;15.95;100.00
9784;BME280;4931;44.874;-1.092;2023-08-06T05:57:17;101992.69;;;15.93;100.00
9784;BME280;4931;44.874;-1.092;2023-08-06T05:59:43;102000.06;;;16.03;100.00
9784;BME280;4931;44.874;-1.092;2023-08-06T06:02:09;101981.88;;;15.97;100.00
9784;BME280;4931;44.874;-1.092;2023-08-06T06:04:34;101992.63;;;16.04;100.00
9784;BME280;4931;44.874;-1.092;2023-08-06T06:07:00;101990.56;;;16.20;100.00
9784;BME280;4931;44.874;-1.092;2023-08-06T06:09:25;101993.88;;;16.56;100.00
9784;BME280;4931;44.874;-1.092;2023-08-06T06:11:52;101996.97;;;16.50;100.00
9784;BME280;4931;44.874;-1.092;2023-08-06T06:14:18;102002.56;;;16.45;100.00
9784;BME280;4931;44.874;-1.092;2023-08-06T06:16:44;102001.50;;;16.40;100.00
9784;BME280;4931;44.874;-1.092;2023-08-06T06:19:10;102005.97;;;16.36;100.00
9784;BME280;4931;44.874;-1.092;2023-08-06T06:21:35;102010.56;;;16.46;100.00
9784;BME280;4931;44.874;-1.092;2023-08-06T06:24:01;102008.56;;;16.52;100.00
9784;BME280;4931;44.874;-1.092;2023-08-06T06:26:27;102017.69;;;16.57;100.00
9784;BME280;4931;44.874;-1.092;2023-08-06T06:28:54;102022.38;;;16.57;100.00
9784;BME280;4931;44.874;-1.092;2023-08-06T06:31:19;102011.34;;;16.52;100.00
9784;BME280;4931;44.874;-1.092;2023-08-06T06:33:45;101994.22;;;16.50;100.00
9784;BME280;4931;44.874;-1.092;2023-08-06T06:36:10;102016.84;;;16.57;100.00
9784;BME280;4931;44.874;-1.092;2023-08-06T06:38:36;102013.22;;;16.62;100.00
9784;BME280;4931;44.874;-1.092;2023-08-06T06:41:01;102014.00;;;16.67;100.00
9784;BME280;4931;44.874;-1.092;2023-08-06T06:43:28;102016.16;;;16.70;100.00
9784;BME280;4931;44.874;-1.092;2023-08-06T06:45:58;102017.75;;;16.82;100.00
9784;BME280;4931;44.874;-1.092;2023-08-06T06:48:28;102019.06;;;16.89;100.00
9784;BME280;4931;44.874;-1.092;2023-08-06T06:50:54;102012.69;;;16.89;100.00
9784;BME280;4931;44.874;-1.092;2023-08-06T06:53:19;102021.81;;;17.19;100.00
9784;BME280;4931;44.874;-1.092;2023-08-06T06:55:45;102021.34;;;17.60;100.00
9784;BME280;4931;44.874;-1.092;2023-08-06T06:58:15;102027.97;;;17.83;100.00
9784;BME280;4931;44.874;-1.092;2023-08-06T07:00:41;102023.56;;;17.82;100.00
9784;BME280;4931;44.874;-1.092;2023-08-06T07:03:06;102033.81;;;17.82;100.00
9784;BME280;4931;44.874;-1.092;2023-08-06T07:05:32;102041.31;;;17.81;100.00
9784;BME280;4931;44.874;-1.092;2023-08-06T07:07:58;102023.94;;;17.75;100.00
9784;BME280;4931;44.874;-1.092;2023-08-06T07:10:23;102039.50;;;17.96;100.00
9784;BME280;4931;44.874;-1.092;2023-08-06T07:12:49;102038.00;;;18.03;100.00
9784;BME280;4931;44.874;-1.092;2023-08-06T07:15:14;102036.94;;;17.99;100.00
9784;BME280;4931;44.874;-1.092;2023-08-06T07:17:40;102042.72;;;18.03;100.00
9784;BME280;4931;44.874;-1.092;2023-08-06T07:20:06;102026.03;;;17.84;100.00
9784;BME280;4931;44.874;-1.092;2023-08-06T07:22:32;102031.84;;;18.06;100.00
9784;BME280;4931;44.874;-1.092;2023-08-06T07:24:57;102029.06;;;18.06;100.00
9784;BME280;4931;44.874;-1.092;2023-08-06T07:27:24;102044.34;;;18.61;100.00
9784;BME280;4931;44.874;-1.092;2023-08-06T07:29:50;102037.25;;;19.16;100.00
9784;BME280;4931;44.874;-1.092;2023-08-06T07:32:15;102040.56;;;19.46;100.00
9784;BME280;4931;44.874;-1.092;2023-08-06T07:34:41;102039.72;;;19.87;100.00
9784;BME280;4931;44.874;-1.092;2023-08-06T07:37:06;102032.97;;;20.38;100.00
9784;BME280;4931;44.874;-1.092;2023-08-06T07:39:32;102046.69;;;20.71;100.00
9784;BME280;4931;44.874;-1.092;2023-08-06T07:41:57;102044.31;;;20.87;100.00
9784;BME280;4931;44.874;-1.092;2023-08-06T07:44:23;102030.88;;;20.44;100.00
9784;BME280;4931;44.874;-1.092;2023-08-06T07:46:49;102040.97;;;19.81;100.00
9784;BME280;4931;44.874;-1.092;2023-08-06T07:49:14;102040.88;;;19.44;100.00
9784;BME280;4931;44.874;-1.092;2023-08-06T07:51:40;102042.94;;;20.17;100.00
9784;BME280;4931;44.874;-1.092;2023-08-06T07:54:06;102023.50;;;20.39;100.00
9784;BME280;4931;44.874;-1.092;2023-08-06T07:56:31;102036.00;;;20.96;100.00
9784;BME280;4931;44.874;-1.092;2023-08-06T07:58:57;102039.53;;;21.19;100.00
9784;BME280;4931;44.874;-1.092;2023-08-06T08:01:22;102033.84;;;20.93;100.00
9784;BME280;4931;44.874;-1.092;2023-08-06T08:03:48;102027.03;;;20.77;100.00
9784;BME280;4931;44.874;-1.092;2023-08-06T08:06:13;102031.53;;;20.41;100.00
9784;BME280;4931;44.874;-1.092;2023-08-06T08:08:39;102047.13;;;20.05;100.00
9784;BME280;4931;44.874;-1.092;2023-08-06T08:11:05;102051.50;;;19.56;100.00
9784;BME280;4931;44.874;-1.092;2023-08-06T08:13:30;102051.50;;;19.56;100.00
9784;BME280;4931;44.874;-1.092;2023-08-06T08:15:59;102053.13;;;19.71;100.00
9784;BME280;4931;44.874;-1.092;2023-08-06T08:18:25;102048.94;;;19.60;100.00
9784;BME280;4931;44.874;-1.092;2023-08-06T08:20:51;102050.81;;;20.15;100.00
9784;BME280;4931;44.874;-1.092;2023-08-06T08:23:16;102055.78;;;20.04;100.00
9784;BME280;4931;44.874;-1.092;2023-08-06T08:25:42;102056.16;;;20.25;100.00
9784;BME280;4931;44.874;-1.092;2023-08-06T08:28:08;102048.56;;;20.62;100.00
9784;BME280;4931;44.874;-1.092;2023-08-06T08:30:33;102050.16;;;21.09;100.00
9784;BME280;4931;44.874;-1.092;2023-08-06T08:32:59;102038.22;;;21.57;100.00
9784;BME280;4931;44.874;-1.092;2023-08-06T08:35:24;102036.81;;;21.86;100.00
9784;BME280;4931;44.874;-1.092;2023-08-06T08:37:50;102036.66;;;22.09;100.00
9784;BME280;4931;44.874;-1.092;2023-08-06T08:40:16;102040.44;;;22.13;100.00
9784;BME280;4931;44.874;-1.092;2023-08-06T08:42:42;102036.00;;;22.29;100.00
9784;BME280;4931;44.874;-1.092;2023-08-06T08:45:13;102046.78;;;21.69;100.00
9784;BME280;4931;44.874;-1.092;2023-08-06T08:47:43;102034.75;;;21.51;100.00
9784;BME280;4931;44.874;-1.092;2023-08-06T08:50:09;102031.63;;;21.53;100.00
9784;BME280;4931;44.874;-1.092;2023-08-06T08:52:39;102019.25;;;22.12;100.00
9784;BME280;4931;44.874;-1.092;2023-08-06T08:55:08;102028.13;;;22.31;100.00
9784;BME280;4931;44.874;-1.092;2023-08-06T08:57:34;102031.91;;;22.44;100.00
9784;BME280;4931;44.874;-1.092;2023-08-06T09:00:00;102036.81;;;22.03;100.00
9784;BME280;4931;44.874;-1.092;2023-08-06T09:02:28;102036.66;;;21.74;100.00
9784;BME280;4931;44.874;-1.092;2023-08-06T09:04:57;102035.56;;;21.52;100.00
9784;BME280;4931;44.874;-1.092;2023-08-06T09:07:25;102041.13;;;21.52;100.00
9784;BME280;4931;44.874;-1.092;2023-08-06T09:09:52;102043.50;;;21.67;100.00
9784;BME280;4931;44.874;-1.092;2023-08-06T09:12:18;102045.72;;;21.48;100.00
9784;BME280;4931;44.874;-1.092;2023-08-06T09:14:44;102045.13;;;21.19;100.00
9784;BME280;4931;44.874;-1.092;2023-08-06T09:17:10;102058.78;;;21.21;100.00
9784;BME280;4931;44.874;-1.092;2023-08-06T09:19:42;102052.09;;;20.99;100.00
9784;BME280;4931;44.874;-1.092;2023-08-06T09:22:12;102053.00;;;20.86;100.00
9784;BME280;4931;44.874;-1.092;2023-08-06T09:24:40;102051.34;;;20.85;100.00
9784;BME280;4931;44.874;-1.092;2023-08-06T09:27:11;102055.66;;;21.22;100.00
9784;BME280;4931;44.874;-1.092;2023-08-06T09:29:40;102055.09;;;21.52;100.00
9784;BME280;4931;44.874;-1.092;2023-08-06T09:32:06;102054.59;;;21.10;100.00
9784;BME280;4931;44.874;-1.092;2023-08-06T09:34:32;102059.50;;;21.35;100.00
9784;BME280;4931;44.874;-1.092;2023-08-06T09:36:57;102065.34;;;21.25;100.00
9784;BME280;4931;44.874;-1.092;2023-08-06T09:39:30;102068.28;;;20.88;100.00
9784;BME280;4931;44.874;-1.092;2023-08-06T09:42:00;102065.63;;;21.15;100.00
9784;BME280;4931;44.874;-1.092;2023-08-06T09:44:28;102049.88;;;21.19;100.00
9784;BME280;4931;44.874;-1.092;2023-08-06T09:46:58;102057.06;;;21.51;100.00
9784;BME280;4931;44.874;-1.092;2023-08-06T09:49:28;102059.50;;;21.35;100.00
9784;BME280;4931;44.874;-1.092;2023-08-06T09:51:54;102056.13;;;21.25;100.00
9784;BME280;4931;44.874;-1.092;2023-08-06T09:54:23;102061.22;;;21.54;100.00
9784;BME280;4931;44.874;-1.092;2023-08-06T09:56:49;102068.22;;;22.00;100.00
9784;BME280;4931;44.874;-1.092;2023-08-06T09:59:17;102063.63;;;22.04;100.00
9784;BME280;4931;44.874;-1.092;2023-08-06T10:01:43;102075.50;;;22.54;100.00
9784;BME280;4931;44.874;-1.092;2023-08-06T10:04:09;102069.00;;;23.06;100.00
9784;BME280;4931;44.874;-1.092;2023-08-06T10:06:37;102079.59;;;22.57;100.00
9784;BME280;4931;44.874;-1.092;2023-08-06T10:09:04;102081.56;;;22.65;100.00
9784;BME280;4931;44.874;-1.092;2023-08-06T10:11:30;102072.91;;;23.23;100.00
9784;BME280;4931;44.874;-1.092;2023-08-06T10:14:11;102069.78;;;23.84;100.00
9784;BME280;4931;44.874;-1.092;2023-08-06T10:16:39;102070.25;;;23.86;100.00
9784;BME280;4931;44.874;-1.092;2023-08-06T10:19:09;102066.78;;;23.89;100.00
9784;BME280;4931;44.874;-1.092;2023-08-06T10:21:35;102069.78;;;23.54;100.00
9784;BME280;4931;44.874;-1.092;2023-08-06T10:24:01;102070.34;;;23.38;100.00
9784;BME280;4931;44.874;-1.092;2023-08-06T10:26:29;102069.28;;;24.12;100.00
9784;BME280;4931;44.874;-1.092;2023-08-06T10:28:55;102057.72;;;23.92;100.00
9784;BME280;4931;44.874;-1.092;2023-08-06T10:31:53;102067.38;;;24.03;100.00
9784;BME280;4931;44.874;-1.092;2023-08-06T10:34:20;102049.94;;;24.19;100.00
9784;BME280;4931;44.874;-1.092;2023-08-06T10:36:45;102070.88;;;23.70;100.00
9784;BME280;4931;44.874;-1.092;2023-08-06T10:39:13;102077.41;;;23.45;100.00
9784;BME280;4931;44.874;-1.092;2023-08-06T10:41:42;102077.69;;;23.04;100.00
9784;BME280;4931;44.874;-1.092;2023-08-06T10:44:08;102070.59;;;23.07;100.00
9784;BME280;4931;44.874;-1.092;2023-08-06T10:46:35;102081.31;;;23.14;100.00
9784;BME280;4931;44.874;-1.092;2023-08-06T10:49:01;102079.53;;;23.48;100.00
9784;BME280;4931;44.874;-1.092;2023-08-06T10:51:27;102080.34;;;24.08;100.00
9784;BME280;4931;44.874;-1.092;2023-08-06T10:53:53;102077.16;;;24.18;100.00
9784;BME280;4931;44.874;-1.092;2023-08-06T10:56:21;102077.16;;;23.97;100.00
9784;BME280;4931;44.874;-1.092;2023-08-06T10:58:50;102079.19;;;23.79;100.00
9784;BME280;4931;44.874;-1.092;2023-08-06T11:01:17;102079.66;;;23.21;100.00
9784;BME280;4931;44.874;-1.092;2023-08-06T11:03:43;102081.50;;;23.56;100.00
9784;BME280;4931;44.874;-1.092;2023-08-06T11:06:09;102080.31;;;23.87;100.00
9784;BME280;4931;44.874;-1.092;2023-08-06T11:08:37;102080.22;;;24.04;100.00
9784;BME280;4931;44.874;-1.092;2023-08-06T11:11:10;102072.44;;;24.10;100.00
9784;BME280;4931;44.874;-1.092;2023-08-06T11:13:42;102078.44;;;24.21;100.00
9784;BME280;4931;44.874;-1.092;2023-08-06T11:16:09;102073.88;;;24.38;100.00
9784;BME280;4931;44.874;-1.092;2023-08-06T11:18:35;102071.88;;;24.38;100.00
9784;BME280;4931;44.874;-1.092;2023-08-06T11:21:01;102069.13;;;24.50;100.00
9784;BME280;4931;44.874;-1.092;2023-08-06T11:23:28;102066.00;;;24.10;100.00
9784;BME280;4931;44.874;-1.092;2023-08-06T11:25:57;102060.28;;;24.27;100.00
9784;BME280;4931;44.874;-1.092;2023-08-06T11:28:22;102063.63;;;23.99;100.00
9784;BME280;4931;44.874;-1.092;2023-08-06T11:30:49;102065.84;;;23.85;100.00
9784;BME280;4931;44.874;-1.092;2023-08-06T11:33:14;102061.03;;;23.94;100.00
9784;BME280;4931;44.874;-1.092;2023-08-06T11:35:45;102069.47;;;24.49;100.00
9784;BME280;4931;44.874;-1.092;2023-08-06T11:38:13;102071.84;;;24.80;100.00
9784;BME280;4931;44.874;-1.092;2023-08-06T11:40:39;102065.69;;;24.11;100.00
9784;BME280;4931;44.874;-1.092;2023-08-06T11:43:05;102076.69;;;23.57;100.00
9784;BME280;4931;44.874;-1.092;2023-08-06T11:45:31;102070.38;;;23.68;100.00
9784;BME280;4931;44.874;-1.092;2023-08-06T11:48:00;102064.63;;;24.16;100.00
9784;BME280;4931;44.874;-1.092;2023-08-06T11:50:26;102064.78;;;24.41;100.00
9784;BME280;4931;44.874;-1.092;2023-08-06T11:53:00;102057.00;;;24.80;100.00
9784;BME280;4931;44.874;-1.092;2023-08-06T11:55:27;102052.34;;;24.96;100.00
9784;BME280;4931;44.874;-1.092;2023-08-06T11:57:54;102052.63;;;25.28;100.00
9784;BME280;4931;44.874;-1.092;2023-08-06T12:00:20;102055.69;;;25.35;100.00
9784;BME280;4931;44.874;-1.092;2023-08-06T12:02:48;102041.88;;;25.80;100.00
9784;BME280;4931;44.874;-1.092;2023-08-06T12:05:17;102047.34;;;25.89;100.00
9784;BME280;4931;44.874;-1.092;2023-08-06T12:07:44;102043.25;;;25.86;100.00
9784;BME280;4931;44.874;-1.092;2023-08-06T12:10:11;102043.97;;;25.58;100.00
9784;BME280;4931;44.874;-1.092;2023-08-06T12:12:37;102043.72;;;25.26;100.00
9784;BME280;4931;44.874;-1.092;2023-08-06T12:15:04;102047.28;;;25.48;100.00
9784;BME280;4931;44.874;-1.092;2023-08-06T12:17:31;102045.03;;;25.66;100.00
9784;BME280;4931;44.874;-1.092;2023-08-06T12:19:57;102046.50;;;26.00;100.00
9784;BME280;4931;44.874;-1.092;2023-08-06T12:22:23;102054.47;;;26.11;100.00
9784;BME280;4931;44.874;-1.092;2023-08-06T12:24:49;102058.72;;;26.05;100.00
9784;BME280;4931;44.874;-1.092;2023-08-06T12:27:14;102064.88;;;26.10;100.00
9784;BME280;4931;44.874;-1.092;2023-08-06T12:29:47;102058.88;;;26.24;100.00
9784;BME280;4931;44.874;-1.092;2023-08-06T12:32:14;102062.63;;;26.16;100.00
9784;BME280;4931;44.874;-1.092;2023-08-06T12:34:40;102053.16;;;26.21;100.00
9784;BME280;4931;44.874;-1.092;2023-08-06T12:37:06;102047.41;;;26.17;100.00
9784;BME280;4931;44.874;-1.092;2023-08-06T12:39:35;102039.75;;;26.30;100.00
9784;BME280;4931;44.874;-1.092;2023-08-06T12:42:03;102043.84;;;26.32;100.00
9784;BME280;4931;44.874;-1.092;2023-08-06T12:44:28;102037.09;;;26.21;100.00
9784;BME280;4931;44.874;-1.092;2023-08-06T12:46:54;102041.69;;;26.01;100.00
9784;BME280;4931;44.874;-1.092;2023-08-06T12:49:20;102041.34;;;26.15;100.00
9784;BME280;4931;44.874;-1.092;2023-08-06T12:51:50;102039.88;;;26.33;100.00